sensor_id;sensor_type;location;lat;lon;timestamp;temperature;humidity
57719;DHT22;43561;50.090;18.522;2022-08-02T00:02:22;17.10;99.90
57719;DHT22;43561;50.090;18.522;2022-08-02T00:12:24;16.90;99.90
57719;DHT22;43561;50.090;18.522;2022-08-02T00:22:26;16.80;99.90
57719;DHT22;43561;50.090;18.522;2022-08-02T00:32:29;16.90;99.90
57719;DHT22;43561;50.090;18.522;2022-08-02T00:42:31;16.90;99.90
57719;DHT22;43561;50.090;18.522;2022-08-02T00:52:33;16.70;99.90
57719;DHT22;43561;50.090;18.522;2022-08-02T01:02:34;16.70;99.90
57719;DHT22;43561;50.090;18.522;2022-08-02T01:12:36;16.70;99.90
57719;DHT22;43561;50.090;18.522;2022-08-02T01:22:59;16.60;99.90
57719;DHT22;43561;50.090;18.522;2022-08-02T01:33:04;16.80;99.90
57719;DHT22;43561;50.090;18.522;2022-08-02T01:43:08;16.80;99.90
57719;DHT22;43561;50.090;18.522;2022-08-02T01:53:13;16.80;99.90
57719;DHT22;43561;50.090;18.522;2022-08-02T02:03:19;16.60;99.90
57719;DHT22;43561;50.090;18.522;2022-08-02T02:13:23;16.30;99.90
57719;DHT22;43561;50.090;18.522;2022-08-02T02:23:34;16.30;99.90
57719;DHT22;43561;50.090;18.522;2022-08-02T02:33:48;16.20;99.90
57719;DHT22;43561;50.090;18.522;2022-08-02T02:43:53;16.10;99.90
57719;DHT22;43561;50.090;18.522;2022-08-02T02:53:57;16.00;99.90
57719;DHT22;43561;50.090;18.522;2022-08-02T03:04:19;15.80;99.90
57719;DHT22;43561;50.090;18.522;2022-08-02T03:14:22;16.00;99.90
57719;DHT22;43561;50.090;18.522;2022-08-02T03:24:24;16.00;99.90
57719;DHT22;43561;50.090;18.522;2022-08-02T03:34:28;16.00;99.90
57719;DHT22;43561;50.090;18.522;2022-08-02T03:44:31;15.90;99.90
57719;DHT22;43561;50.090;18.522;2022-08-02T03:54:34;16.10;99.90
57719;DHT22;43561;50.090;18.522;2022-08-02T04:04:46;16.40;99.90
57719;DHT22;43561;50.090;18.522;2022-08-02T04:14:48;16.60;99.90
57719;DHT22;43561;50.090;18.522;2022-08-02T04:24:54;16.80;99.90
57719;DHT22;43561;50.090;18.522;2022-08-02T04:34:58;17.00;99.90
57719;DHT22;43561;50.090;18.522;2022-08-02T04:45:20;17.20;99.90
57719;DHT22;43561;50.090;18.522;2022-08-02T04:55:22;17.30;99.90
57719;DHT22;43561;50.090;18.522;2022-08-02T05:05:24;17.20;99.90
57719;DHT22;43561;50.090;18.522;2022-08-02T05:15:27;17.50;99.90
57719;DHT22;43561;50.090;18.522;2022-08-02T05:25:34;18.00;99.90
57719;DHT22;43561;50.090;18.522;2022-08-02T05:35:35;18.30;99.90
57719;DHT22;43561;50.090;18.522;2022-08-02T05:45:37;19.50;99.90
57719;DHT22;43561;50.090;18.522;2022-08-02T05:55:45;18.90;99.90
57719;DHT22;43561;50.090;18.522;2022-08-02T06:06:09;19.10;99.90
57719;DHT22;43561;50.090;18.522;2022-08-02T06:16:12;19.50;99.90
57719;DHT22;43561;50.090;18.522;2022-08-02T06:26:15;19.30;99.90
57719;DHT22;43561;50.090;18.522;2022-08-02T06:36:57;19.80;99.90
57719;DHT22;43561;50.090;18.522;2022-08-02T06:47:02;20.60;99.90
57719;DHT22;43561;50.090;18.522;2022-08-02T06:57:13;21.00;99.90
57719;DHT22;43561;50.090;18.522;2022-08-02T07:07:15;22.40;99.90
57719;DHT22;43561;50.090;18.522;2022-08-02T07:17:17;21.80;99.90
57719;DHT22;43561;50.090;18.522;2022-08-02T07:27:20;21.90;99.90
57719;DHT22;43561;50.090;18.522;2022-08-02T07:37:28;21.00;99.90
57719;DHT22;43561;50.090;18.522;2022-08-02T07:47:51;20.60;99.90
57719;DHT22;43561;50.090;18.522;2022-08-02T07:57:53;21.10;99.90
57719;DHT22;43561;50.090;18.522;2022-08-02T08:07:55;20.90;99.90
57719;DHT22;43561;50.090;18.522;2022-08-02T08:17:57;21.40;99.90
57719;DHT22;43561;50.090;18.522;2022-08-02T08:27:59;21.50;99.90
57719;DHT22;43561;50.090;18.522;2022-08-02T08:38:01;21.80;99.90
57719;DHT22;43561;50.090;18.522;2022-08-02T08:48:14;23.00;99.90
57719;DHT22;43561;50.090;18.522;2022-08-02T08:58:30;21.90;99.90
57719;DHT22;43561;50.090;18.522;2022-08-02T09:08:32;22.30;99.90
57719;DHT22;43561;50.090;18.522;2022-08-02T09:18:40;21.90;99.90
57719;DHT22;43561;50.090;18.522;2022-08-02T09:28:43;22.40;99.90
57719;DHT22;43561;50.090;18.522;2022-08-02T09:39:04;22.90;99.90
57719;DHT22;43561;50.090;18.522;2022-08-02T09:49:17;22.90;99.90
57719;DHT22;43561;50.090;18.522;2022-08-02T09:59:21;24.20;99.90
57719;DHT22;43561;50.090;18.522;2022-08-02T10:09:23;23.40;99.90
57719;DHT22;43561;50.090;18.522;2022-08-02T10:19:26;23.70;98.00
57719;DHT22;43561;50.090;18.522;2022-08-02T10:29:49;24.70;96.20
57719;DHT22;43561;50.090;18.522;2022-08-02T10:39:57;24.70;95.40
57719;DHT22;43561;50.090;18.522;2022-08-02T10:49:59;23.00;98.00
57719;DHT22;43561;50.090;18.522;2022-08-02T11:20:32;24.30;94.40
57719;DHT22;43561;50.090;18.522;2022-08-02T11:30:37;24.60;94.50
57719;DHT22;43561;50.090;18.522;2022-08-02T11:40:40;24.10;92.20
57719;DHT22;43561;50.090;18.522;2022-08-02T11:50:42;23.60;93.30
57719;DHT22;43561;50.090;18.522;2022-08-02T12:00:44;24.00;92.90
57719;DHT22;43561;50.090;18.522;2022-08-02T12:10:47;24.90;88.40
57719;DHT22;43561;50.090;18.522;2022-08-02T12:20:50;25.30;86.60
57719;DHT22;43561;50.090;18.522;2022-08-02T12:30:55;25.30;84.30
57719;DHT22;43561;50.090;18.522;2022-08-02T12:41:11;24.50;82.20
57719;DHT22;43561;50.090;18.522;2022-08-02T12:51:37;24.90;81.90
57719;DHT22;43561;50.090;18.522;2022-08-02T13:02:07;25.30;78.90
57719;DHT22;43561;50.090;18.522;2022-08-02T13:12:10;25.40;78.20
57719;DHT22;43561;50.090;18.522;2022-08-02T13:22:12;25.00;77.90
57719;DHT22;43561;50.090;18.522;2022-08-02T13:32:15;24.50;80.00
57719;DHT22;43561;50.090;18.522;2022-08-02T13:42:18;24.80;78.60
57719;DHT22;43561;50.090;18.522;2022-08-02T13:52:20;25.10;77.00
57719;DHT22;43561;50.090;18.522;2022-08-02T14:02:22;25.10;74.90
57719;DHT22;43561;50.090;18.522;2022-08-02T14:12:24;24.80;76.40
57719;DHT22;43561;50.090;18.522;2022-08-02T14:22:26;25.00;73.60
57719;DHT22;43561;50.090;18.522;2022-08-02T14:32:28;25.00;74.20
57719;DHT22;43561;50.090;18.522;2022-08-02T14:42:33;25.00;72.70
57719;DHT22;43561;50.090;18.522;2022-08-02T14:52:35;25.00;69.50
57719;DHT22;43561;50.090;18.522;2022-08-02T15:02:37;25.00;66.10
57719;DHT22;43561;50.090;18.522;2022-08-02T15:12:39;25.20;66.70
57719;DHT22;43561;50.090;18.522;2022-08-02T15:22:41;25.10;70.60
57719;DHT22;43561;50.090;18.522;2022-08-02T15:32:44;24.80;69.90
57719;DHT22;43561;50.090;18.522;2022-08-02T15:42:54;24.90;69.10
57719;DHT22;43561;50.090;18.522;2022-08-02T15:52:56;25.00;70.10
57719;DHT22;43561;50.090;18.522;2022-08-02T16:02:58;24.70;66.70
57719;DHT22;43561;50.090;18.522;2022-08-02T16:13:00;24.70;71.50
57719;DHT22;43561;50.090;18.522;2022-08-02T16:23:02;24.70;71.90
57719;DHT22;43561;50.090;18.522;2022-08-02T16:33:05;24.60;71.90
57719;DHT22;43561;50.090;18.522;2022-08-02T16:43:10;24.60;72.00
57719;DHT22;43561;50.090;18.522;2022-08-02T16:53:12;24.40;73.20
57719;DHT22;43561;50.090;18.522;2022-08-02T17:03:34;24.30;72.80
57719;DHT22;43561;50.090;18.522;2022-08-02T17:13:56;24.10;72.30
57719;DHT22;43561;50.090;18.522;2022-08-02T17:24:00;24.00;73.40
57719;DHT22;43561;50.090;18.522;2022-08-02T17:34:09;23.90;74.40
57719;DHT22;43561;50.090;18.522;2022-08-02T17:44:11;23.70;73.90
57719;DHT22;43561;50.090;18.522;2022-08-02T17:54:13;23.50;75.10
57719;DHT22;43561;50.090;18.522;2022-08-02T18:04:20;23.40;75.60
57719;DHT22;43561;50.090;18.522;2022-08-02T18:14:28;23.30;77.70
57719;DHT22;43561;50.090;18.522;2022-08-02T18:24:30;22.60;84.80
57719;DHT22;43561;50.090;18.522;2022-08-02T18:34:32;22.40;89.40
57719;DHT22;43561;50.090;18.522;2022-08-02T18:44:34;22.00;92.70
57719;DHT22;43561;50.090;18.522;2022-08-02T18:54:40;21.80;93.30
57719;DHT22;43561;50.090;18.522;2022-08-02T19:04:42;21.50;94.70
57719;DHT22;43561;50.090;18.522;2022-08-02T19:14:47;21.00;99.30
57719;DHT22;43561;50.090;18.522;2022-08-02T19:24:49;20.40;99.90
57719;DHT22;43561;50.090;18.522;2022-08-02T19:34:51;20.10;99.90
57719;DHT22;43561;50.090;18.522;2022-08-02T19:44:53;20.00;99.90
57719;DHT22;43561;50.090;18.522;2022-08-02T19:54:56;19.70;99.90
57719;DHT22;43561;50.090;18.522;2022-08-02T20:05:18;19.50;99.90
57719;DHT22;43561;50.090;18.522;2022-08-02T20:15:25;19.10;99.90
57719;DHT22;43561;50.090;18.522;2022-08-02T20:25:50;18.70;99.90
57719;DHT22;43561;50.090;18.522;2022-08-02T20:35:54;18.60;99.90
57719;DHT22;43561;50.090;18.522;2022-08-02T20:45:57;18.60;99.90
57719;DHT22;43561;50.090;18.522;2022-08-02T20:55:59;18.50;99.90
57719;DHT22;43561;50.090;18.522;2022-08-02T21:06:01;18.40;99.90
57719;DHT22;43561;50.090;18.522;2022-08-02T21:16:04;17.90;99.90
57719;DHT22;43561;50.090;18.522;2022-08-02T21:26:09;17.60;99.90
57719;DHT22;43561;50.090;18.522;2022-08-02T21:36:11;17.40;99.90
57719;DHT22;43561;50.090;18.522;2022-08-02T21:46:16;17.40;99.90
57719;DHT22;43561;50.090;18.522;2022-08-02T21:56:18;17.20;99.90
57719;DHT22;43561;50.090;18.522;2022-08-02T22:06:24;17.00;99.90
57719;DHT22;43561;50.090;18.522;2022-08-02T22:16:28;16.80;99.90
57719;DHT22;43561;50.090;18.522;2022-08-02T22:26:30;16.80;99.90
57719;DHT22;43561;50.090;18.522;2022-08-02T22:36:38;17.10;99.90
57719;DHT22;43561;50.090;18.522;2022-08-02T22:46:44;16.70;99.90
57719;DHT22;43561;50.090;18.522;2022-08-02T22:56:46;16.40;99.90
57719;DHT22;43561;50.090;18.522;2022-08-02T23:06:48;16.30;99.90
57719;DHT22;43561;50.090;18.522;2022-08-02T23:16:50;16.30;99.90
57719;DHT22;43561;50.090;18.522;2022-08-02T23:27:07;16.40;99.90
57719;DHT22;43561;50.090;18.522;2022-08-02T23:37:10;16.10;99.90
57719;DHT22;43561;50.090;18.522;2022-08-02T23:47:12;16.10;99.90
57719;DHT22;43561;50.090;18.522;2022-08-02T23:57:14;16.10;99.90
